sensor_id;sensor_type;location;lat;lon;timestamp;temperature;humidity
83120;SHT31;73001;51.784;4.660;2024-02-21T00:01:38;11.47;77.26
83120;SHT31;73001;51.784;4.660;2024-02-21T00:04:04;11.44;77.29
83120;SHT31;73001;51.784;4.660;2024-02-21T00:06:29;11.41;77.47
83120;SHT31;73001;51.784;4.660;2024-02-21T00:08:55;11.36;77.60
83120;SHT31;73001;51.784;4.660;2024-02-21T00:11:20;11.39;77.60
83120;SHT31;73001;51.784;4.660;2024-02-21T00:13:46;11.31;77.66
83120;SHT31;73001;51.784;4.660;2024-02-21T00:16:11;11.24;77.81
83120;SHT31;73001;51.784;4.660;2024-02-21T00:18:37;11.31;77.52
83120;SHT31;73001;51.784;4.660;2024-02-21T00:21:02;11.23;77.67
83120;SHT31;73001;51.784;4.660;2024-02-21T00:23:28;11.30;77.59
83120;SHT31;73001;51.784;4.660;2024-02-21T00:25:54;11.27;77.47
83120;SHT31;73001;51.784;4.660;2024-02-21T00:28:19;11.24;77.47
83120;SHT31;73001;51.784;4.660;2024-02-21T00:30:45;11.27;77.62
83120;SHT31;73001;51.784;4.660;2024-02-21T00:33:13;11.24;77.65
83120;SHT31;73001;51.784;4.660;2024-02-21T00:35:39;11.22;77.47
83120;SHT31;73001;51.784;4.660;2024-02-21T00:38:04;11.20;77.49
83120;SHT31;73001;51.784;4.660;2024-02-21T00:40:30;11.22;77.63
83120;SHT31;73001;51.784;4.660;2024-02-21T00:42:56;11.22;77.43
83120;SHT31;73001;51.784;4.660;2024-02-21T00:45:21;11.20;77.68
83120;SHT31;73001;51.784;4.660;2024-02-21T00:47:46;11.22;77.42
83120;SHT31;73001;51.784;4.660;2024-02-21T00:50:12;11.16;77.61
83120;SHT31;73001;51.784;4.660;2024-02-21T00:52:37;11.20;77.57
83120;SHT31;73001;51.784;4.660;2024-02-21T00:55:04;11.22;77.45
83120;SHT31;73001;51.784;4.660;2024-02-21T00:57:29;11.22;77.38
83120;SHT31;73001;51.784;4.660;2024-02-21T00:59:55;11.22;77.73
83120;SHT31;73001;51.784;4.660;2024-02-21T01:02:20;11.26;77.49
83120;SHT31;73001;51.784;4.660;2024-02-21T01:04:46;11.24;77.50
83120;SHT31;73001;51.784;4.660;2024-02-21T01:07:11;11.31;77.38
83120;SHT31;73001;51.784;4.660;2024-02-21T01:09:37;11.36;77.13
83120;SHT31;73001;51.784;4.660;2024-02-21T01:12:02;11.33;77.23
83120;SHT31;73001;51.784;4.660;2024-02-21T01:14:28;11.34;77.14
83120;SHT31;73001;51.784;4.660;2024-02-21T01:16:53;11.36;76.92
83120;SHT31;73001;51.784;4.660;2024-02-21T01:19:19;11.40;76.91
83120;SHT31;73001;51.784;4.660;2024-02-21T01:21:44;11.37;76.82
83120;SHT31;73001;51.784;4.660;2024-02-21T01:24:10;11.40;76.92
83120;SHT31;73001;51.784;4.660;2024-02-21T01:26:35;11.40;76.83
83120;SHT31;73001;51.784;4.660;2024-02-21T01:29:00;11.41;76.65
83120;SHT31;73001;51.784;4.660;2024-02-21T01:31:26;11.43;76.71
83120;SHT31;73001;51.784;4.660;2024-02-21T01:33:51;11.33;76.88
83120;SHT31;73001;51.784;4.660;2024-02-21T01:36:17;11.41;76.85
83120;SHT31;73001;51.784;4.660;2024-02-21T01:38:42;11.43;76.59
83120;SHT31;73001;51.784;4.660;2024-02-21T01:41:07;11.36;76.66
83120;SHT31;73001;51.784;4.660;2024-02-21T01:43:33;11.29;76.70
83120;SHT31;73001;51.784;4.660;2024-02-21T01:45:59;11.33;76.62
83120;SHT31;73001;51.784;4.660;2024-02-21T01:48:25;11.27;76.53
83120;SHT31;73001;51.784;4.660;2024-02-21T01:50:52;11.30;76.78
83120;SHT31;73001;51.784;4.660;2024-02-21T01:53:23;11.26;76.62
83120;SHT31;73001;51.784;4.660;2024-02-21T01:55:50;11.24;76.82
83120;SHT31;73001;51.784;4.660;2024-02-21T01:58:17;11.24;76.62
83120;SHT31;73001;51.784;4.660;2024-02-21T02:00:45;11.20;76.73
83120;SHT31;73001;51.784;4.660;2024-02-21T02:03:12;11.22;76.85
83120;SHT31;73001;51.784;4.660;2024-02-21T02:05:48;11.26;76.65
83120;SHT31;73001;51.784;4.660;2024-02-21T02:08:15;11.27;76.60
83120;SHT31;73001;51.784;4.660;2024-02-21T02:10:41;11.33;76.64
83120;SHT31;73001;51.784;4.660;2024-02-21T02:13:07;11.31;76.47
83120;SHT31;73001;51.784;4.660;2024-02-21T02:15:44;11.26;76.70
83120;SHT31;73001;51.784;4.660;2024-02-21T02:18:11;11.24;76.88
83120;SHT31;73001;51.784;4.660;2024-02-21T02:20:37;11.29;76.81
83120;SHT31;73001;51.784;4.660;2024-02-21T02:23:09;11.23;76.71
83120;SHT31;73001;51.784;4.660;2024-02-21T02:25:39;11.20;77.03
83120;SHT31;73001;51.784;4.660;2024-02-21T02:28:08;11.16;76.97
83120;SHT31;73001;51.784;4.660;2024-02-21T02:30:36;11.20;76.87
83120;SHT31;73001;51.784;4.660;2024-02-21T02:33:03;11.19;76.94
83120;SHT31;73001;51.784;4.660;2024-02-21T02:35:28;11.13;77.09
83120;SHT31;73001;51.784;4.660;2024-02-21T02:37:54;11.23;76.75
83120;SHT31;73001;51.784;4.660;2024-02-21T02:40:19;11.22;77.00
83120;SHT31;73001;51.784;4.660;2024-02-21T02:42:45;11.20;77.00
83120;SHT31;73001;51.784;4.660;2024-02-21T02:45:11;11.22;76.84
83120;SHT31;73001;51.784;4.660;2024-02-21T02:47:36;11.19;76.90
83120;SHT31;73001;51.784;4.660;2024-02-21T02:50:02;11.22;76.86
83120;SHT31;73001;51.784;4.660;2024-02-21T02:52:28;11.20;76.87
83120;SHT31;73001;51.784;4.660;2024-02-21T02:54:53;11.18;76.98
83120;SHT31;73001;51.784;4.660;2024-02-21T02:57:21;11.19;76.86
83120;SHT31;73001;51.784;4.660;2024-02-21T02:59:50;11.20;76.84
83120;SHT31;73001;51.784;4.660;2024-02-21T03:02:17;11.16;76.92
83120;SHT31;73001;51.784;4.660;2024-02-21T03:04:43;11.15;77.11
83120;SHT31;73001;51.784;4.660;2024-02-21T03:07:09;11.16;76.98
83120;SHT31;73001;51.784;4.660;2024-02-21T03:09:39;11.19;76.93
83120;SHT31;73001;51.784;4.660;2024-02-21T03:12:06;11.26;76.73
83120;SHT31;73001;51.784;4.660;2024-02-21T03:14:32;11.33;76.62
83120;SHT31;73001;51.784;4.660;2024-02-21T03:16:58;11.30;76.61
83120;SHT31;73001;51.784;4.660;2024-02-21T03:19:24;11.33;76.79
83120;SHT31;73001;51.784;4.660;2024-02-21T03:21:50;11.29;76.68
83120;SHT31;73001;51.784;4.660;2024-02-21T03:24:19;11.23;76.93
83120;SHT31;73001;51.784;4.660;2024-02-21T03:26:45;11.26;76.90
83120;SHT31;73001;51.784;4.660;2024-02-21T03:29:15;11.24;76.93
83120;SHT31;73001;51.784;4.660;2024-02-21T03:31:42;11.29;77.07
83120;SHT31;73001;51.784;4.660;2024-02-21T03:34:10;11.24;77.04
83120;SHT31;73001;51.784;4.660;2024-02-21T03:36:35;11.22;77.32
83120;SHT31;73001;51.784;4.660;2024-02-21T03:39:01;11.29;77.07
83120;SHT31;73001;51.784;4.660;2024-02-21T03:41:26;11.31;77.11
83120;SHT31;73001;51.784;4.660;2024-02-21T03:43:52;11.23;77.21
83120;SHT31;73001;51.784;4.660;2024-02-21T03:46:17;11.29;77.32
83120;SHT31;73001;51.784;4.660;2024-02-21T03:48:43;11.33;77.07
83120;SHT31;73001;51.784;4.660;2024-02-21T03:51:08;11.27;77.21
83120;SHT31;73001;51.784;4.660;2024-02-21T03:53:33;11.29;77.20
83120;SHT31;73001;51.784;4.660;2024-02-21T03:56:03;11.34;77.25
83120;SHT31;73001;51.784;4.660;2024-02-21T03:58:32;11.41;76.99
83120;SHT31;73001;51.784;4.660;2024-02-21T04:01:00;11.36;77.11
83120;SHT31;73001;51.784;4.660;2024-02-21T04:03:26;11.36;76.99
83120;SHT31;73001;51.784;4.660;2024-02-21T04:05:52;11.34;77.28
83120;SHT31;73001;51.784;4.660;2024-02-21T04:08:17;11.31;77.28
83120;SHT31;73001;51.784;4.660;2024-02-21T04:10:43;11.36;77.11
83120;SHT31;73001;51.784;4.660;2024-02-21T04:13:09;11.43;76.85
83120;SHT31;73001;51.784;4.660;2024-02-21T04:15:34;11.40;76.96
83120;SHT31;73001;51.784;4.660;2024-02-21T04:18:00;11.41;76.78
83120;SHT31;73001;51.784;4.660;2024-02-21T04:20:26;11.36;76.85
83120;SHT31;73001;51.784;4.660;2024-02-21T04:22:51;11.36;77.05
83120;SHT31;73001;51.784;4.660;2024-02-21T04:25:17;11.36;76.95
83120;SHT31;73001;51.784;4.660;2024-02-21T04:27:42;11.36;77.08
83120;SHT31;73001;51.784;4.660;2024-02-21T04:30:09;11.33;77.10
83120;SHT31;73001;51.784;4.660;2024-02-21T04:32:35;11.27;77.33
83120;SHT31;73001;51.784;4.660;2024-02-21T04:35:01;11.29;77.41
83120;SHT31;73001;51.784;4.660;2024-02-21T04:37:26;11.26;77.50
83120;SHT31;73001;51.784;4.660;2024-02-21T04:39:52;11.26;77.60
83120;SHT31;73001;51.784;4.660;2024-02-21T04:42:17;11.29;77.42
83120;SHT31;73001;51.784;4.660;2024-02-21T04:44:43;11.27;77.63
83120;SHT31;73001;51.784;4.660;2024-02-21T04:47:08;11.26;77.59
83120;SHT31;73001;51.784;4.660;2024-02-21T04:49:34;11.26;77.52
83120;SHT31;73001;51.784;4.660;2024-02-21T04:52:00;11.33;77.55
83120;SHT31;73001;51.784;4.660;2024-02-21T04:54:26;11.33;77.37
83120;SHT31;73001;51.784;4.660;2024-02-21T04:56:52;11.33;77.43
83120;SHT31;73001;51.784;4.660;2024-02-21T04:59:17;11.29;77.61
83120;SHT31;73001;51.784;4.660;2024-02-21T05:01:43;11.29;77.51
83120;SHT31;73001;51.784;4.660;2024-02-21T05:04:08;11.23;77.61
83120;SHT31;73001;51.784;4.660;2024-02-21T05:06:38;11.24;77.55
83120;SHT31;73001;51.784;4.660;2024-02-21T05:09:04;11.20;77.68
83120;SHT31;73001;51.784;4.660;2024-02-21T05:11:30;11.20;77.73
83120;SHT31;73001;51.784;4.660;2024-02-21T05:13:56;11.15;77.61
83120;SHT31;73001;51.784;4.660;2024-02-21T05:16:21;11.16;77.77
83120;SHT31;73001;51.784;4.660;2024-02-21T05:18:47;11.15;77.53
83120;SHT31;73001;51.784;4.660;2024-02-21T05:21:12;11.06;77.84
83120;SHT31;73001;51.784;4.660;2024-02-21T05:23:38;10.99;77.98
83120;SHT31;73001;51.784;4.660;2024-02-21T05:26:05;10.98;78.09
83120;SHT31;73001;51.784;4.660;2024-02-21T05:28:31;10.99;77.98
83120;SHT31;73001;51.784;4.660;2024-02-21T05:30:57;11.03;77.96
83120;SHT31;73001;51.784;4.660;2024-02-21T05:33:22;11.03;77.85
83120;SHT31;73001;51.784;4.660;2024-02-21T05:35:48;11.05;77.61
83120;SHT31;73001;51.784;4.660;2024-02-21T05:38:14;11.00;77.83
83120;SHT31;73001;51.784;4.660;2024-02-21T05:40:40;10.99;77.74
83120;SHT31;73001;51.784;4.660;2024-02-21T05:43:09;10.93;77.95
83120;SHT31;73001;51.784;4.660;2024-02-21T05:45:36;10.89;78.12
83120;SHT31;73001;51.784;4.660;2024-02-21T05:48:01;10.88;78.20
83120;SHT31;73001;51.784;4.660;2024-02-21T05:50:28;10.85;78.23
83120;SHT31;73001;51.784;4.660;2024-02-21T05:52:56;10.85;78.15
83120;SHT31;73001;51.784;4.660;2024-02-21T05:55:22;10.88;78.15
83120;SHT31;73001;51.784;4.660;2024-02-21T05:57:48;10.89;77.85
83120;SHT31;73001;51.784;4.660;2024-02-21T06:00:14;10.79;78.12
83120;SHT31;73001;51.784;4.660;2024-02-21T06:02:40;10.75;78.21
83120;SHT31;73001;51.784;4.660;2024-02-21T06:05:07;10.72;78.30
83120;SHT31;73001;51.784;4.660;2024-02-21T06:07:36;10.71;78.41
83120;SHT31;73001;51.784;4.660;2024-02-21T06:10:02;10.71;78.50
83120;SHT31;73001;51.784;4.660;2024-02-21T06:12:28;10.72;78.28
83120;SHT31;73001;51.784;4.660;2024-02-21T06:14:53;10.61;78.52
83120;SHT31;73001;51.784;4.660;2024-02-21T06:17:19;10.62;78.67
83120;SHT31;73001;51.784;4.660;2024-02-21T06:19:44;10.65;78.77
83120;SHT31;73001;51.784;4.660;2024-02-21T06:22:10;10.62;78.83
83120;SHT31;73001;51.784;4.660;2024-02-21T06:24:36;10.62;78.82
83120;SHT31;73001;51.784;4.660;2024-02-21T06:27:05;10.67;78.81
83120;SHT31;73001;51.784;4.660;2024-02-21T06:29:32;10.67;78.79
83120;SHT31;73001;51.784;4.660;2024-02-21T06:31:57;10.78;78.60
83120;SHT31;73001;51.784;4.660;2024-02-21T06:34:23;10.76;78.70
83120;SHT31;73001;51.784;4.660;2024-02-21T06:36:49;10.76;78.55
83120;SHT31;73001;51.784;4.660;2024-02-21T06:39:15;10.78;78.57
83120;SHT31;73001;51.784;4.660;2024-02-21T06:41:40;10.75;78.65
83120;SHT31;73001;51.784;4.660;2024-02-21T06:44:06;10.76;78.49
83120;SHT31;73001;51.784;4.660;2024-02-21T06:46:31;10.80;78.54
83120;SHT31;73001;51.784;4.660;2024-02-21T06:49:01;10.89;78.34
83120;SHT31;73001;51.784;4.660;2024-02-21T06:51:27;10.92;78.15
83120;SHT31;73001;51.784;4.660;2024-02-21T06:53:53;10.96;78.08
83120;SHT31;73001;51.784;4.660;2024-02-21T06:56:19;11.00;77.93
83120;SHT31;73001;51.784;4.660;2024-02-21T06:58:45;11.05;77.83
83120;SHT31;73001;51.784;4.660;2024-02-21T07:01:11;11.06;77.78
83120;SHT31;73001;51.784;4.660;2024-02-21T07:03:37;11.09;77.67
83120;SHT31;73001;51.784;4.660;2024-02-21T07:06:03;11.13;77.63
83120;SHT31;73001;51.784;4.660;2024-02-21T07:08:29;11.15;77.42
83120;SHT31;73001;51.784;4.660;2024-02-21T07:10:54;11.15;77.46
83120;SHT31;73001;51.784;4.660;2024-02-21T07:13:20;11.16;77.41
83120;SHT31;73001;51.784;4.660;2024-02-21T07:15:47;11.18;77.53
83120;SHT31;73001;51.784;4.660;2024-02-21T07:18:13;11.18;77.49
83120;SHT31;73001;51.784;4.660;2024-02-21T07:20:38;11.22;77.23
83120;SHT31;73001;51.784;4.660;2024-02-21T07:23:04;11.24;77.22
83120;SHT31;73001;51.784;4.660;2024-02-21T07:25:29;11.23;77.19
83120;SHT31;73001;51.784;4.660;2024-02-21T07:27:55;11.22;77.06
83120;SHT31;73001;51.784;4.660;2024-02-21T07:30:20;11.15;77.27
83120;SHT31;73001;51.784;4.660;2024-02-21T07:32:49;11.22;77.14
83120;SHT31;73001;51.784;4.660;2024-02-21T07:35:15;11.22;76.92
83120;SHT31;73001;51.784;4.660;2024-02-21T07:37:41;11.23;76.91
83120;SHT31;73001;51.784;4.660;2024-02-21T07:40:11;11.19;77.10
83120;SHT31;73001;51.784;4.660;2024-02-21T07:42:37;11.16;77.01
83120;SHT31;73001;51.784;4.660;2024-02-21T07:45:03;11.13;77.26
83120;SHT31;73001;51.784;4.660;2024-02-21T07:47:28;11.16;77.44
83120;SHT31;73001;51.784;4.660;2024-02-21T07:49:54;11.13;77.23
83120;SHT31;73001;51.784;4.660;2024-02-21T07:52:19;11.16;76.96
83120;SHT31;73001;51.784;4.660;2024-02-21T07:54:45;11.15;77.22
83120;SHT31;73001;51.784;4.660;2024-02-21T07:57:10;11.19;77.16
83120;SHT31;73001;51.784;4.660;2024-02-21T07:59:36;11.24;77.14
83120;SHT31;73001;51.784;4.660;2024-02-21T08:02:01;11.22;77.04
83120;SHT31;73001;51.784;4.660;2024-02-21T08:04:27;11.24;76.92
83120;SHT31;73001;51.784;4.660;2024-02-21T08:06:53;11.20;77.03
83120;SHT31;73001;51.784;4.660;2024-02-21T08:09:24;11.24;77.11
83120;SHT31;73001;51.784;4.660;2024-02-21T08:11:49;11.24;76.91
83120;SHT31;73001;51.784;4.660;2024-02-21T08:14:15;11.24;76.94
83120;SHT31;73001;51.784;4.660;2024-02-21T08:16:44;11.24;76.95
83120;SHT31;73001;51.784;4.660;2024-02-21T08:19:11;11.24;76.72
83120;SHT31;73001;51.784;4.660;2024-02-21T08:21:36;11.27;76.99
83120;SHT31;73001;51.784;4.660;2024-02-21T08:24:02;11.33;76.78
83120;SHT31;73001;51.784;4.660;2024-02-21T08:26:27;11.36;76.53
83120;SHT31;73001;51.784;4.660;2024-02-21T08:28:56;11.34;76.48
83120;SHT31;73001;51.784;4.660;2024-02-21T08:31:24;11.41;76.61
83120;SHT31;73001;51.784;4.660;2024-02-21T08:33:59;11.40;76.36
83120;SHT31;73001;51.784;4.660;2024-02-21T08:36:32;11.43;76.15
83120;SHT31;73001;51.784;4.660;2024-02-21T08:38:58;11.36;76.26
83120;SHT31;73001;51.784;4.660;2024-02-21T08:41:24;11.33;76.42
83120;SHT31;73001;51.784;4.660;2024-02-21T08:43:51;11.34;76.21
83120;SHT31;73001;51.784;4.660;2024-02-21T08:46:17;11.37;76.35
83120;SHT31;73001;51.784;4.660;2024-02-21T08:48:43;11.36;76.06
83120;SHT31;73001;51.784;4.660;2024-02-21T08:51:08;11.37;76.21
83120;SHT31;73001;51.784;4.660;2024-02-21T08:53:34;11.36;76.39
83120;SHT31;73001;51.784;4.660;2024-02-21T08:55:59;11.37;76.33
83120;SHT31;73001;51.784;4.660;2024-02-21T08:58:25;11.50;76.14
83120;SHT31;73001;51.784;4.660;2024-02-21T09:00:52;11.50;76.03
83120;SHT31;73001;51.784;4.660;2024-02-21T09:03:17;11.49;75.90
83120;SHT31;73001;51.784;4.660;2024-02-21T09:05:46;11.49;75.91
83120;SHT31;73001;51.784;4.660;2024-02-21T09:08:12;11.54;75.98
83120;SHT31;73001;51.784;4.660;2024-02-21T09:10:39;11.59;75.54
83120;SHT31;73001;51.784;4.660;2024-02-21T09:13:05;11.59;75.60
83120;SHT31;73001;51.784;4.660;2024-02-21T09:15:32;11.54;75.58
83120;SHT31;73001;51.784;4.660;2024-02-21T09:17:57;11.56;75.33
83120;SHT31;73001;51.784;4.660;2024-02-21T09:20:22;11.60;75.34
83120;SHT31;73001;51.784;4.660;2024-02-21T09:22:48;11.64;75.25
83120;SHT31;73001;51.784;4.660;2024-02-21T09:25:14;11.70;75.22
83120;SHT31;73001;51.784;4.660;2024-02-21T09:27:39;11.77;75.03
83120;SHT31;73001;51.784;4.660;2024-02-21T09:30:06;11.78;74.97
83120;SHT31;73001;51.784;4.660;2024-02-21T09:32:31;11.87;74.92
83120;SHT31;73001;51.784;4.660;2024-02-21T09:34:58;11.88;74.30
83120;SHT31;73001;51.784;4.660;2024-02-21T09:37:23;11.88;74.32
83120;SHT31;73001;51.784;4.660;2024-02-21T09:39:49;11.91;74.40
83120;SHT31;73001;51.784;4.660;2024-02-21T09:42:20;11.97;74.41
83120;SHT31;73001;51.784;4.660;2024-02-21T09:44:46;12.05;74.24
83120;SHT31;73001;51.784;4.660;2024-02-21T09:47:22;12.12;73.90
83120;SHT31;73001;51.784;4.660;2024-02-21T09:49:49;12.26;73.54
83120;SHT31;73001;51.784;4.660;2024-02-21T09:52:17;12.36;73.10
83120;SHT31;73001;51.784;4.660;2024-02-21T09:54:43;12.35;73.33
83120;SHT31;73001;51.784;4.660;2024-02-21T09:57:10;12.38;73.17
83120;SHT31;73001;51.784;4.660;2024-02-21T09:59:37;12.48;72.93
83120;SHT31;73001;51.784;4.660;2024-02-21T10:02:03;12.56;72.76
83120;SHT31;73001;51.784;4.660;2024-02-21T10:04:30;12.52;72.61
83120;SHT31;73001;51.784;4.660;2024-02-21T10:06:56;12.45;72.95
83120;SHT31;73001;51.784;4.660;2024-02-21T10:09:26;12.39;72.70
83120;SHT31;73001;51.784;4.660;2024-02-21T10:12:15;12.38;73.23
83120;SHT31;73001;51.784;4.660;2024-02-21T10:14:44;12.43;72.95
83120;SHT31;73001;51.784;4.660;2024-02-21T10:17:16;12.41;73.18
83120;SHT31;73001;51.784;4.660;2024-02-21T10:19:43;12.38;73.41
83120;SHT31;73001;51.784;4.660;2024-02-21T10:22:09;12.48;72.95
83120;SHT31;73001;51.784;4.660;2024-02-21T10:24:36;12.50;73.09
83120;SHT31;73001;51.784;4.660;2024-02-21T10:27:05;12.45;72.96
83120;SHT31;73001;51.784;4.660;2024-02-21T10:29:36;12.35;73.06
83120;SHT31;73001;51.784;4.660;2024-02-21T10:32:12;12.29;73.03
83120;SHT31;73001;51.784;4.660;2024-02-21T10:34:40;12.15;73.40
83120;SHT31;73001;51.784;4.660;2024-02-21T10:37:08;12.09;73.46
83120;SHT31;73001;51.784;4.660;2024-02-21T10:39:37;12.05;73.52
83120;SHT31;73001;51.784;4.660;2024-02-21T10:42:03;11.92;73.46
83120;SHT31;73001;51.784;4.660;2024-02-21T10:44:31;11.85;73.90
83120;SHT31;73001;51.784;4.660;2024-02-21T10:46:57;11.88;73.45
83120;SHT31;73001;51.784;4.660;2024-02-21T10:49:24;11.82;73.04
83120;SHT31;73001;51.784;4.660;2024-02-21T10:51:54;11.78;73.61
83120;SHT31;73001;51.784;4.660;2024-02-21T10:54:41;11.81;73.61
83120;SHT31;73001;51.784;4.660;2024-02-21T10:57:10;11.85;73.58
83120;SHT31;73001;51.784;4.660;2024-02-21T10:59:37;11.92;73.34
83120;SHT31;73001;51.784;4.660;2024-02-21T11:02:04;12.04;73.07
83120;SHT31;73001;51.784;4.660;2024-02-21T11:04:31;12.08;72.83
83120;SHT31;73001;51.784;4.660;2024-02-21T11:07:05;12.09;72.39
83120;SHT31;73001;51.784;4.660;2024-02-21T11:09:32;12.17;72.58
83120;SHT31;73001;51.784;4.660;2024-02-21T11:11:57;12.32;72.39
83120;SHT31;73001;51.784;4.660;2024-02-21T11:14:27;12.39;71.80
83120;SHT31;73001;51.784;4.660;2024-02-21T11:16:53;12.53;71.17
83120;SHT31;73001;51.784;4.660;2024-02-21T11:19:28;12.53;71.26
83120;SHT31;73001;51.784;4.660;2024-02-21T11:21:55;12.56;71.45
83120;SHT31;73001;51.784;4.660;2024-02-21T11:24:30;12.60;71.24
83120;SHT31;73001;51.784;4.660;2024-02-21T11:26:56;12.67;70.73
83120;SHT31;73001;51.784;4.660;2024-02-21T11:29:32;12.66;70.73
83120;SHT31;73001;51.784;4.660;2024-02-21T11:31:57;12.72;70.54
83120;SHT31;73001;51.784;4.660;2024-02-21T11:34:23;12.77;70.86
83120;SHT31;73001;51.784;4.660;2024-02-21T11:36:51;12.76;70.25
83120;SHT31;73001;51.784;4.660;2024-02-21T11:39:20;12.79;69.97
83120;SHT31;73001;51.784;4.660;2024-02-21T11:41:58;12.76;69.84
83120;SHT31;73001;51.784;4.660;2024-02-21T11:44:23;12.75;70.37
83120;SHT31;73001;51.784;4.660;2024-02-21T11:46:49;12.79;70.23
83120;SHT31;73001;51.784;4.660;2024-02-21T11:49:14;12.69;70.16
83120;SHT31;73001;51.784;4.660;2024-02-21T11:51:40;12.67;70.52
83120;SHT31;73001;51.784;4.660;2024-02-21T11:54:05;12.67;70.77
83120;SHT31;73001;51.784;4.660;2024-02-21T11:56:31;12.73;70.24
83120;SHT31;73001;51.784;4.660;2024-02-21T11:58:58;12.72;70.38
83120;SHT31;73001;51.784;4.660;2024-02-21T12:01:24;12.69;70.29
83120;SHT31;73001;51.784;4.660;2024-02-21T12:03:50;12.69;69.97
83120;SHT31;73001;51.784;4.660;2024-02-21T12:06:16;12.63;70.44
83120;SHT31;73001;51.784;4.660;2024-02-21T12:08:46;12.62;70.17
83120;SHT31;73001;51.784;4.660;2024-02-21T12:11:22;12.64;70.63
83120;SHT31;73001;51.784;4.660;2024-02-21T12:14:01;12.60;70.17
83120;SHT31;73001;51.784;4.660;2024-02-21T12:16:29;12.56;69.94
83120;SHT31;73001;51.784;4.660;2024-02-21T12:18:56;12.50;70.71
83120;SHT31;73001;51.784;4.660;2024-02-21T12:21:33;12.46;70.68
83120;SHT31;73001;51.784;4.660;2024-02-21T12:24:31;12.49;70.83
83120;SHT31;73001;51.784;4.660;2024-02-21T12:26:57;12.48;70.87
83120;SHT31;73001;51.784;4.660;2024-02-21T12:29:24;12.46;70.76
83120;SHT31;73001;51.784;4.660;2024-02-21T12:31:50;12.53;70.95
83120;SHT31;73001;51.784;4.660;2024-02-21T12:34:16;12.57;70.73
83120;SHT31;73001;51.784;4.660;2024-02-21T12:36:43;12.59;70.98
83120;SHT31;73001;51.784;4.660;2024-02-21T12:39:12;12.63;70.92
83120;SHT31;73001;51.784;4.660;2024-02-21T12:41:38;12.64;70.64
83120;SHT31;73001;51.784;4.660;2024-02-21T12:44:06;12.59;70.39
83120;SHT31;73001;51.784;4.660;2024-02-21T12:46:35;12.52;71.08
83120;SHT31;73001;51.784;4.660;2024-02-21T12:49:01;12.48;71.05
83120;SHT31;73001;51.784;4.660;2024-02-21T12:51:28;12.43;71.18
83120;SHT31;73001;51.784;4.660;2024-02-21T12:53:55;12.42;71.51
83120;SHT31;73001;51.784;4.660;2024-02-21T12:56:20;12.49;71.52
83120;SHT31;73001;51.784;4.660;2024-02-21T12:58:46;12.41;71.62
83120;SHT31;73001;51.784;4.660;2024-02-21T13:01:12;12.46;71.71
83120;SHT31;73001;51.784;4.660;2024-02-21T13:03:37;12.46;71.80
83120;SHT31;73001;51.784;4.660;2024-02-21T13:06:04;12.50;71.66
83120;SHT31;73001;51.784;4.660;2024-02-21T13:08:29;12.46;71.36
83120;SHT31;73001;51.784;4.660;2024-02-21T13:10:55;12.41;71.51
83120;SHT31;73001;51.784;4.660;2024-02-21T13:13:20;12.41;71.65
83120;SHT31;73001;51.784;4.660;2024-02-21T13:15:46;12.38;71.52
83120;SHT31;73001;51.784;4.660;2024-02-21T13:18:11;12.41;71.49
83120;SHT31;73001;51.784;4.660;2024-02-21T13:20:37;12.43;71.26
83120;SHT31;73001;51.784;4.660;2024-02-21T13:23:02;12.43;71.24
83120;SHT31;73001;51.784;4.660;2024-02-21T13:25:28;12.38;71.03
83120;SHT31;73001;51.784;4.660;2024-02-21T13:27:54;12.36;70.93
83120;SHT31;73001;51.784;4.660;2024-02-21T13:30:20;12.32;70.37
83120;SHT31;73001;51.784;4.660;2024-02-21T13:32:46;12.25;70.53
83120;SHT31;73001;51.784;4.660;2024-02-21T13:35:12;12.21;70.34
83120;SHT31;73001;51.784;4.660;2024-02-21T13:37:38;12.29;70.52
83120;SHT31;73001;51.784;4.660;2024-02-21T13:40:05;12.29;70.49
83120;SHT31;73001;51.784;4.660;2024-02-21T13:42:30;12.31;70.14
83120;SHT31;73001;51.784;4.660;2024-02-21T13:44:56;12.39;70.33
83120;SHT31;73001;51.784;4.660;2024-02-21T13:47:21;12.39;70.35
83120;SHT31;73001;51.784;4.660;2024-02-21T13:49:47;12.36;69.65
83120;SHT31;73001;51.784;4.660;2024-02-21T13:52:13;12.41;70.70
83120;SHT31;73001;51.784;4.660;2024-02-21T13:54:38;12.39;70.93
83120;SHT31;73001;51.784;4.660;2024-02-21T13:57:04;12.32;70.76
83120;SHT31;73001;51.784;4.660;2024-02-21T13:59:29;12.35;71.38
83120;SHT31;73001;51.784;4.660;2024-02-21T14:01:55;12.31;71.30
83120;SHT31;73001;51.784;4.660;2024-02-21T14:04:21;12.22;72.06
83120;SHT31;73001;51.784;4.660;2024-02-21T14:06:47;12.26;72.68
83120;SHT31;73001;51.784;4.660;2024-02-21T14:09:13;12.28;72.96
83120;SHT31;73001;51.784;4.660;2024-02-21T14:11:38;12.32;73.00
83120;SHT31;73001;51.784;4.660;2024-02-21T14:14:05;12.38;73.24
83120;SHT31;73001;51.784;4.660;2024-02-21T14:16:31;12.38;73.44
83120;SHT31;73001;51.784;4.660;2024-02-21T14:18:57;12.39;73.75
83120;SHT31;73001;51.784;4.660;2024-02-21T14:21:22;12.31;73.89
83120;SHT31;73001;51.784;4.660;2024-02-21T14:23:48;12.26;74.05
83120;SHT31;73001;51.784;4.660;2024-02-21T14:26:13;12.18;74.40
83120;SHT31;73001;51.784;4.660;2024-02-21T14:28:39;12.08;74.39
83120;SHT31;73001;51.784;4.660;2024-02-21T14:31:05;11.91;75.45
83120;SHT31;73001;51.784;4.660;2024-02-21T14:33:35;11.85;75.98
83120;SHT31;73001;51.784;4.660;2024-02-21T14:36:01;11.80;76.35
83120;SHT31;73001;51.784;4.660;2024-02-21T14:38:28;11.78;76.80
83120;SHT31;73001;51.784;4.660;2024-02-21T14:40:53;11.77;76.95
83120;SHT31;73001;51.784;4.660;2024-02-21T14:43:19;11.75;77.02
83120;SHT31;73001;51.784;4.660;2024-02-21T14:45:47;11.73;77.02
83120;SHT31;73001;51.784;4.660;2024-02-21T14:48:15;11.71;77.36
83120;SHT31;73001;51.784;4.660;2024-02-21T14:50:41;11.77;77.42
83120;SHT31;73001;51.784;4.660;2024-02-21T14:53:10;11.77;77.38
83120;SHT31;73001;51.784;4.660;2024-02-21T14:55:36;11.77;77.54
83120;SHT31;73001;51.784;4.660;2024-02-21T14:58:01;11.81;77.54
83120;SHT31;73001;51.784;4.660;2024-02-21T15:00:27;11.73;77.57
83120;SHT31;73001;51.784;4.660;2024-02-21T15:02:58;11.73;77.65
83120;SHT31;73001;51.784;4.660;2024-02-21T15:05:24;11.68;77.88
83120;SHT31;73001;51.784;4.660;2024-02-21T15:07:51;11.63;77.92
83120;SHT31;73001;51.784;4.660;2024-02-21T15:10:16;11.53;78.46
83120;SHT31;73001;51.784;4.660;2024-02-21T15:12:45;11.49;79.01
83120;SHT31;73001;51.784;4.660;2024-02-21T15:15:11;11.50;79.03
83120;SHT31;73001;51.784;4.660;2024-02-21T15:17:37;11.53;79.25
83120;SHT31;73001;51.784;4.660;2024-02-21T15:20:03;11.54;79.16
83120;SHT31;73001;51.784;4.660;2024-02-21T15:22:30;11.50;79.17
83120;SHT31;73001;51.784;4.660;2024-02-21T15:24:55;11.44;79.50
83120;SHT31;73001;51.784;4.660;2024-02-21T15:27:21;11.46;79.53